Adams, Illinois
Current Conditions -  °F | °C
As of 6:54 PM on Wednesday 17 Dec 2014 (Local Time) from KUIN Reporting Station
Clear Clear  
Wind Chill: -10°   Ceiling: Unl
Heat Index: -5°   Visibility: 10mi
Dew Point: -8°   Wind: 7mph
Humidity: 81%   Direction: 40°NE
Pressure: 30.28"   Gusts: NA
Location:  39.8875°N, 91.0352°W
Report Text: KUIN 180054Z AUTO 04006KT 10SM CLR M05/M08 A3028 RMK AO2 SLP263 T10501078
Loading
Personal Weather Stations






























Interactive Weather Map New forecast layout! Learn more

10-Day Weather Forecast

Advertisements
Track Severe Weather on mobile